RJOI/IWA METAR and TAF weather

Enter ICAO airport designator
Station Type Date Time Source
RJOI METAR 2021/08/05 03:55 UTC NOAA

RJOI 050355Z 00000KT 9999 FEW030 FEW250 32/25 A2970 RMK SLP057 T03170250


Station Type Date Time Source
RJOI Decoded METAR 2021/08/05 03:55 UTC NOAA

MCAS IWAKUNI,JAPAN, JA, Japan (RJOI) 34-09N 132-14E 5M
Aug 04, 2021 - 11:55 PM EDT / 2021.08.05 0355 UTC
Wind: Calm:0
Visibility: greater than 7 mile(s):0
Sky conditions: mostly clear
Temperature: 89.1 F (31.7 C)
Heat index: 101.5 F (38.6 C):1
Dew Point: 77.0 F (25.0 C)
Relative Humidity: 67%
Pressure (altimeter): 29.7 in. Hg (1005 hPa)
ob: RJOI 050355Z 00000KT 9999 FEW030 FEW250 32/25 A2970 RMK SLP057 T03170250
cycle: 4

Station Type Date Time Source
RJOI TAF 2021/08/04 23:57 UTC NOAA

TAF TAF RJOI 0423/0523 VRB06KT 9999 FEW030 SCT050 QNH2974INS
BECMG 0503/0505 160010KT 9999 FEW030 FEW045 SCT250 QNH2963INS
FM051000 28006KT 9999 FEW025 SCT240 QNH2965INS
BECMG 0512/0514 30008KT 9999 SCT240 QNH2967INS
BECMG 0520/0522 VRB06KT 9999 FEW040 SCT250 QNH2967INS T26/0518Z T33/0505Z

Example: see airport list